• Join FlightAware (Why Join?)
  • Login
  • US Flag 
10:54AM EDT


 

Airport Tracker/Info


-or-


 

Live Flight TrackerFlight Track Log ✈ EJA328 ✈ 20-Mar-2014 ✈ KBTR - KECP

Flight Track Log - Related Links

Times and Time Zones

All times are in EDT time to prevent confusion due to time zone crossing. See the EJA328 flight status page for this flight to view local times or setup timezone preferences in your user account.

Time Position Orientation Groundspeed Altitude Reporting Facility
EDT Latitude Longitude Course Direction KTS MPH feet Rate Location/Type
09:58AM 30.5667 -91.1081 84° East 204 235 3,200  Level Houston Center
09:59AM 30.5639 -91.0278 92° East 257 296 7,000 3,840 Climbing Houston Center
10:00AM 30.5503 -90.9172 98° East 294 338 11,300 3,600 Climbing Houston Center
10:01AM 30.5600 -90.8150 84° East 323 372 14,500 3,060 Climbing Houston Center
10:02AM 30.5692 -90.7056 84° East 338 389 17,700 2,700 Climbing Houston Center
10:03AM 30.5060 -90.8948 84° East  Level FlightAware Approximate
10:03AM 30.5783 -90.5906 85° East 358 412 20,100  Level Houston Center
10:04AM 30.5867 -90.4650 86° East 388 447 22,400 2,160 Climbing Houston Center
10:05AM 30.5967 -90.3347 85° East 400 460 24,700 2,160 Climbing Houston Center
10:06AM 30.6089 -90.1739 85° East 417 480 26,900 1,080 Climbing Houston Center
10:07AM 30.6197 -90.0217 85° East 476 548 27,000  Climbing Houston Center
10:08AM 30.6322 -89.8561 85° East 507 583 27,000  Level Houston Center
10:09AM 30.6450 -89.6806 85° East 531 611 27,000  Level Houston Center
10:10AM 30.6572 -89.5089 85° East 532 612 27,000  Level Houston Center
10:11AM 30.6678 -89.3381 86° East 531 611 27,000  Level Houston Center
10:12AM 30.6794 -89.1681 85° East 531 611 27,000  Level Houston Center
10:13AM 30.6931 -88.9642 86° East 529 609 27,000  Level Houston Center
10:14AM 30.7025 -88.8158 86° East 528 608 27,000  Level Houston Center
10:15AM 30.7144 -88.6253 86° East 528 608 27,000  Level Houston Center
10:17AM 30.7244 -88.4558 86° East 528 608 27,000  Level Houston Center
10:18AM 30.7344 -88.2864 86° East 528 608 27,000  Level Houston Center
10:19AM 30.7450 -88.1161 86° East 528 608 27,000  Level Houston Center
10:20AM 30.7558 -87.9125 86° East 528 608 27,000 -900 Level Houston Center
10:21AM 30.7658 -87.7414 86° East 529 609 25,200 -1,260 Descending Houston Center
10:22AM 30.7764 -87.5739 86° East 527 606 24,500 -1,140 Descending Houston Center
10:23AM 30.7858 -87.4136 86° East 514 592 22,900 -1,680 Descending Houston Center
10:24AM 30.7953 -87.2536 86° East 505 581 21,000 -1,920 Descending Houston Center
10:25AM 30.8044 -87.1003 86° East 492 566 19,000 -2,040 Descending Houston Center
10:26AM 30.8142 -86.9219 86° East 474 545 16,800 -1,920 Descending Houston Center
10:27AM 30.8211 -86.7786 87° East 459 528 15,100 -1,260 Descending Houston Center
10:28AM 30.8292 -86.6397 86° East 445 512 14,300 -1,380 Descending Houston Center
10:29AM 30.8278 -86.5067 91° East 428 493 12,300 -2,100 Descending Houston Center
10:30AM 30.8197 -86.3889 95° East 390 449 10,000 -1,980 Descending Houston Center
10:31AM 30.8039 -86.2833 100° East 342 394 8,400 -1,560 Descending Jacksonville Center
10:32AM 30.7686 -86.1975 116° Southeast 296 341 7,000 1,260 Descending Jacksonville Center
10:33AM 30.7433 -86.1169 110° East 296 341 11,000 1,980 Climbing Jacksonville Center
10:34AM 30.7144 -86.0242 110° East 296 341 11,000  Level Jacksonville Center
10:35AM 30.6853 -85.9336 111° Southeast 296 341 11,000  Level Jacksonville Center
10:36AM 30.6561 -85.8411 110° East 296 341 11,000  Level Jacksonville Center